Terminal Aerodrome Forecast
Issued by NWS

Home | Current Version | Previous Version | Text Only | Print | Product List | Glossary On
Versions: 1 2 3 4 5 6 7 8 9 10 11 12 13 14 15 16 17
477
FTUS41 KPBZ 111140
TAFZZV
TAF
KZZV 111140Z 1112/1212 13004KT P6SM OVC060
     FM112300 16007KT 4SM -RASN OVC050
     FM120300 17007KT 3SM -RA OVC025
     FM120700 20008KT 3SM -RA OVC015
     FM121100 23008KT P6SM OVC010=

USA.gov is the U.S. government's official web portal to all federal, state and local government web resources and services.